Khon Kaen Airport
VTUK : now visible

Airfield :











YOU CAN JOIN US ON...

 
LOGIN :

Register | Disclaimer

   EN    FR    IT 

 









Legend :    VFR   Marginal VFR   IFR   Intensive IFR   Very Intensive IFR
Visi :
Ceiling :
>= 8 km
>= 3000ft
5 to 8 km
1000 to 3000 ft
1500m to 5 km
500 to 1000 ft
800 to 1500m
200 to 500 ft
< 800m
< 200 ft
Symbols :   Thunderstorms  Fog  Heavy snow  Heavy precipitations  Wind > 20 kt






- Airport Elevation : 670 ft
- IATA code : KKC


VTUK - Khon Kaen

CURRENT METAR :
  • 271100Z 03003KT 360V070 9999 FEW025 SCT080 29/23 Q1005 NOSIG

EXPIRED METARs :
  • 271000Z 01003KT 340V050 9999 FEW025 BKN080 30/22 Q1005 NOSIG
  • 270900Z 36003KT 320V040 9999 FEW025 BKN080 31/23 Q1005 NOSIG

TAF TAF VTUK
Valid from the 27 at 12:00 until the 28 at 12:00 UTC


271100Z 2712/2812 34005KT 8000 FEW025 SCT080
TEMPO 2806/2812 VRB15KT 4000 TSRA FEW015CB BKN020 BKN080
VTBB FIR / Asia



MET'MAP, your aeronautical weather chart ! - Copyright ORBIFLY December 2007 - Disclaimer

ORBIFLY MET'MAP TEAM :

Programming & Development : Alexandra Zaïnal
Original concept : Baudouin d'Aumeries
Technical & hardware support : Manuel Goepfert
Assistance : Marc-Olivier Méhu




SOURCES & CREDITS :

   NOAA       Earth
Advisory